Livingston, Texas
Current Conditions -  °F | °C
As of 12:15 AM on Monday 22 Dec 2014 (Local Time) from K6R3 Reporting Station
Haze Haze  
Wind Chill: 54°   Ceiling: 300
Heat Index: 54°   Visibility: 5mi
Dew Point: 53°   Wind: 0mph
Humidity: 97%   Direction: NA
Pressure: 29.89"   Gusts: NA
Location:  30.71°N, 94.94°W
Report Text: K6R3 220615Z AUTO 00000KT 5SM BR OVC003 12/12 A2989 RMK AO2 T01200115
Loading
Personal Weather Stations






























Interactive Weather Map New forecast layout! Learn more

10-Day Weather Forecast

Advertisements
Track Severe Weather on mobile